Portada
METAR-TAF:

METAR-TAF

Aeropuertos :

Balikesir, Turquía

latitud: 39-37N, longitud: 027-55E, altitud: 101 m

Observación

El informe se hizo hace 1 hora y 2 minutos, a las 23:50 UTC
Viento 3 kt del oeste
Temperatura 0°C
Humedad 100%
Presión 1028 hPa
Visibilidad 10 km o más
sin nubes por debajo de 1500 m y sin presencia de cumulonimbus.

METAR: LTBF 052350Z 26003KT CAVOK 00/00 Q1028 NOSIG

Hora: 03:52 (00:52 UTC)

Pronóstico

El informe se hizo hace 2 horas y 12 minutos, a las 22:40 UTC
Pronóstico válido del 06 a las 00 UTC al 06 a las 09 UTC
Viento 2 kt con dirección variable
Visibilidad 10 km o más
sin nubes por debajo de 1500 m y sin presencia de cumulonimbus.
Probabilidad 30%
del 06 a las 03 UTC al 06 a las 06 UTC
Visibilidad: 4000 m
neblina

TAF: LTBF 052240Z 0600/0609 VRB02KT CAVOK PROB30 0603/0606 4000 BR

Observaciones y pronósticos meteorológicos de más de 4000 aeropuertos (mensajes METAR y TAF).

Los puntos amarillos y rojos representan las estaciones disponibles.

Ponga el ratón en el punto deseado para ver el nombre de la estación.

Haga clic para ver las observaciones y los pronósticos meteorológicos.

Para cambiar el mapa : haga clic en los botones verdes con una cruz de color negro para hacer un zoom, en el botón verde con un guión para alejar o en las flechas verdes para mapas adyacentes.


METAR-TAF: